CheckWX is a tool to help pilots better visualize weather data.  It is not intended as a substitute for an official pre-flight weather briefing.

12:44:44 UTC

EGGD TAF
Bristol International Airport
Bristol, United Kingdom
TAF EGGD 041704Z 0418/0518 13014KT 9999 FEW045 BECMG 0421/0424 14017G27KT

Apr-4@
18:00 UTC

Apr-4 @ 18:00 UTC

Apr-4@
21:00 UTC

Apr-4 @ 21:00 UTC

TAF EGGD 041704Z 0418/0518 13014KT 9999 FEW045

Expired

Wind
  • 130° at 14 KTS
Cloud Levels
  • Few at 4,500' AGL

Apr-4@
21:00 UTC

Apr-4 @ 21:00 UTC

Apr-5@
18:00 UTC

Apr-5 @ 18:00 UTC

BECMG 0421/0424 14017G27KT

Becoming

Becoming Conditions expected by Sun, Apr 5, 2020 @ 00:00 UTC

Wind
  • 140° at 17 KTS
  • {Gusting to 27 KTS
Cloud Levels
  • Few at 4,500' AGL